Velserdiep — PBLP — position and weather

sailwx.info

Track history (hours):
 
Tides and Currents Weather Stations Pressure Air Temp Water Temp Dewpoint Dewpoint Depression Visibility Wind Speed Wind Dir Waves Ship Positions

Velserdiep

Last reported at 2014-Nov-14 17:25 UTC. Time now 2014-Nov-21 16:31 UTC.
Position N 41°23' E 029°10'.

Length 120 m; draft 7.5 m.

Type: Cargo ship. MMSI: 244484000.

Date/timePositionNaut miles runAvg speedWind from/ knotsBaromVisibWave heightAir tempDewpointWater temp
2014-Nov-14 17:25N 41°23' E 029°10'8 9.1
2014-Nov-14 16:32N 41°15' E 029°10'  
2014-Nov-12 12:15N 38°18' E 024°51'811.1
2014-Nov-12 11:33N 38°11' E 024°47'1411.2
2014-Nov-12 10:20N 37°59' E 024°38'810.7
2014-Nov-12 09:33N 37°53' E 024°31'1310.8
2014-Nov-12 08:21N 37°45' E 024°18'910.7
2014-Nov-12 07:33N 37°39' E 024°11'1111.0
2014-Nov-12 06:32N 37°29' E 024°04'1311.3
2014-Nov-12 05:20N 37°18' E 023°55'2011.4
2014-Nov-12 03:33N 36°60' E 023°42'1110.8
2014-Nov-12 02:33N 36°51' E 023°36'43910.5
2014-Nov-10 08:33N 36°38' E 014°28'1111.3
2014-Nov-10 07:33N 36°40' E 014°14'1111.2
2014-Nov-10 06:33N 36°42' E 014°00'1111.1
2014-Nov-10 05:33N 36°45' E 013°47'  
2014-Nov-06 20:33N 36°00' W 005°13'1413.8
2014-Nov-06 19:33N 35°57' W 005°29'212 9.1
2014-Nov-05 20:10N 37°43' W 009°18'711.6
2014-Nov-05 19:33N 37°50' W 009°15'1111.4
2014-Nov-05 18:33N 38°00' W 009°10'1111.2
2014-Nov-05 17:33N 38°11' W 009°05'1111.1
2014-Nov-05 16:33N 38°21' W 009°01'1111.0
2014-Nov-05 15:33N 38°31' W 008°54'  
Track history (hours):
 
Tides and Currents Weather Stations Pressure Air Temp Water Temp Dewpoint Dewpoint Depression Visibility Wind Speed Wind Dir Waves Ship Positions

Velserdiep

Last reported at 2014-Nov-14 17:25 UTC. Time now 2014-Nov-21 16:31 UTC.
Position N 41°23' E 029°10'.

Length 120 m; draft 7.5 m.

Type: Cargo ship. MMSI: 244484000.

Date/timePositionNaut miles runAvg speedWind from/ knotsBaromVisibWave heightAir tempDewpointWater temp
2014-Nov-14 17:25N 41°23' E 029°10'8 9.1
2014-Nov-14 16:32N 41°15' E 029°10'  
2014-Nov-12 12:15N 38°18' E 024°51'811.1
2014-Nov-12 11:33N 38°11' E 024°47'1411.2
2014-Nov-12 10:20N 37°59' E 024°38'810.7
2014-Nov-12 09:33N 37°53' E 024°31'1310.8
2014-Nov-12 08:21N 37°45' E 024°18'910.7
2014-Nov-12 07:33N 37°39' E 024°11'1111.0
2014-Nov-12 06:32N 37°29' E 024°04'1311.3
2014-Nov-12 05:20N 37°18' E 023°55'2011.4
2014-Nov-12 03:33N 36°60' E 023°42'1110.8
2014-Nov-12 02:33N 36°51' E 023°36'43910.5
2014-Nov-10 08:33N 36°38' E 014°28'1111.3
2014-Nov-10 07:33N 36°40' E 014°14'1111.2
2014-Nov-10 06:33N 36°42' E 014°00'1111.1
2014-Nov-10 05:33N 36°45' E 013°47'  
2014-Nov-06 20:33N 36°00' W 005°13'1413.8
2014-Nov-06 19:33N 35°57' W 005°29'212 9.1
2014-Nov-05 20:10N 37°43' W 009°18'711.6
2014-Nov-05 19:33N 37°50' W 009°15'1111.4
2014-Nov-05 18:33N 38°00' W 009°10'1111.2
2014-Nov-05 17:33N 38°11' W 009°05'1111.1
2014-Nov-05 16:33N 38°21' W 009°01'1111.0
2014-Nov-05 15:33N 38°31' W 008°54'  

Dump ship's entire track history